createdAt,value
2023-02-11T00:01:29.041Z,21.97
2023-02-11T00:03:57.899Z,25.40
2023-02-11T00:06:28.066Z,25.00
2023-02-11T00:08:55.455Z,23.97
2023-02-11T00:11:33.960Z,24.73
2023-02-11T00:14:04.707Z,24.93
2023-02-11T00:16:32.591Z,24.30
2023-02-11T00:19:01.155Z,25.47
2023-02-11T00:21:28.929Z,25.73
2023-02-11T00:23:57.377Z,22.73
2023-02-11T00:26:31.242Z,26.00
2023-02-11T00:28:59.062Z,24.30
2023-02-11T00:31:26.633Z,24.40
2023-02-11T00:33:54.360Z,24.33
2023-02-11T00:36:27.713Z,23.60
2023-02-11T00:38:56.423Z,21.67
2023-02-11T00:41:23.850Z,23.33
2023-02-11T00:43:51.488Z,22.10
2023-02-11T00:46:18.780Z,24.33
2023-02-11T00:48:46.045Z,22.43
2023-02-11T00:51:13.688Z,24.30
2023-02-11T00:53:41.122Z,21.83
2023-02-11T00:56:08.679Z,22.40
2023-02-11T00:58:36.529Z,23.23
2023-02-11T01:01:04.574Z,22.20
2023-02-11T01:03:32.053Z,21.50
2023-02-11T01:05:59.420Z,21.60
2023-02-11T01:08:26.741Z,23.23
2023-02-11T01:11:00.315Z,21.70
2023-02-11T01:13:28.623Z,21.27
2023-02-11T01:15:56.491Z,20.50
2023-02-11T01:18:23.924Z,22.30
2023-02-11T01:20:52.659Z,19.70
2023-02-11T01:23:20.360Z,23.10
2023-02-11T01:25:47.910Z,22.77
2023-02-11T01:28:25.116Z,22.67
2023-02-11T01:30:52.665Z,22.30
2023-02-11T01:33:20.634Z,21.63
2023-02-11T01:35:48.148Z,22.13
2023-02-11T01:38:22.229Z,21.37
2023-02-11T01:40:52.765Z,23.30
2023-02-11T01:43:20.497Z,19.87
2023-02-11T01:45:47.756Z,22.93
2023-02-11T01:48:30.591Z,21.17
2023-02-11T01:51:09.299Z,21.90
2023-02-11T01:53:56.586Z,19.33
2023-02-11T01:56:44.041Z,21.87
2023-02-11T01:59:18.859Z,20.40
2023-02-11T02:01:52.598Z,21.43
2023-02-11T02:04:21.115Z,21.60
2023-02-11T02:06:56.302Z,19.23
2023-02-11T02:09:30.301Z,21.30
2023-02-11T02:11:57.646Z,21.40
2023-02-11T02:14:26.561Z,19.63
2023-02-11T02:16:53.858Z,21.17
2023-02-11T02:20:04.214Z,18.37
2023-02-11T02:23:05.672Z,19.73
2023-02-11T02:26:00.058Z,20.00
2023-02-11T02:28:41.925Z,20.57
2023-02-11T02:31:17.431Z,19.00
2023-02-11T02:34:02.778Z,19.80
2023-02-11T02:36:43.610Z,18.93
2023-02-11T02:39:24.788Z,20.10
2023-02-11T02:41:53.541Z,18.57
2023-02-11T02:44:21.440Z,18.30
2023-02-11T02:46:48.877Z,19.63
2023-02-11T02:49:17.411Z,19.70
2023-02-11T02:51:58.264Z,19.13
2023-02-11T02:55:01.464Z,18.90
2023-02-11T02:58:02.957Z,20.70
2023-02-11T03:01:14.106Z,18.10
2023-02-11T03:03:53.383Z,16.10
2023-02-11T03:06:44.220Z,18.27
2023-02-11T03:09:27.465Z,17.33
2023-02-11T03:11:54.858Z,19.23
2023-02-11T03:14:26.737Z,23.23
2023-02-11T03:16:57.011Z,19.87
2023-02-11T03:19:34.246Z,20.17
2023-02-11T03:22:06.474Z,18.93
2023-02-11T03:24:37.824Z,21.30
2023-02-11T03:27:28.426Z,20.27
2023-02-11T03:30:11.623Z,21.30
2023-02-11T03:32:54.163Z,17.37
2023-02-11T03:35:41.404Z,18.10
2023-02-11T03:38:36.242Z,18.30
2023-02-11T03:41:07.145Z,16.13
2023-02-11T03:43:49.067Z,17.30
2023-02-11T03:46:20.112Z,20.23
2023-02-11T03:48:56.475Z,17.60
2023-02-11T03:51:24.987Z,18.17
2023-02-11T03:53:55.480Z,17.37
2023-02-11T03:56:27.375Z,15.63
2023-02-11T03:58:54.713Z,17.87
2023-02-11T04:01:22.248Z,16.13
2023-02-11T04:03:49.579Z,14.87
2023-02-11T04:06:16.841Z,17.10
2023-02-11T04:08:44.087Z,13.77
2023-02-11T04:11:11.363Z,15.37
2023-02-11T04:13:38.648Z,16.47
2023-02-11T04:16:05.824Z,18.33
2023-02-11T04:18:33.095Z,16.33
2023-02-11T04:21:00.580Z,15.10
2023-02-11T04:23:27.971Z,17.57
2023-02-11T04:25:55.260Z,16.70
2023-02-11T04:28:22.613Z,16.40
2023-02-11T04:30:51.618Z,18.30
2023-02-11T04:33:18.925Z,16.57
2023-02-11T04:35:46.184Z,17.60
2023-02-11T04:38:13.708Z,15.43
2023-02-11T04:40:41.303Z,18.67
2023-02-11T04:43:08.985Z,14.00
2023-02-11T04:45:36.425Z,17.40
2023-02-11T04:48:04.322Z,15.27
2023-02-11T04:50:31.681Z,16.50
2023-02-11T04:52:59.056Z,16.13
2023-02-11T04:55:26.496Z,16.83
2023-02-11T04:57:55.232Z,17.87
2023-02-11T05:00:22.679Z,16.63
2023-02-11T05:02:49.968Z,18.70
2023-02-11T05:05:17.280Z,17.67
2023-02-11T05:07:44.668Z,17.70
2023-02-11T05:10:11.983Z,16.67
2023-02-11T05:12:39.337Z,14.33
2023-02-11T05:15:06.766Z,17.80
2023-02-11T05:17:34.103Z,14.97
2023-02-11T05:20:01.365Z,19.20
2023-02-11T05:22:28.687Z,16.53
2023-02-11T05:24:55.969Z,16.37
2023-02-11T05:27:23.242Z,18.00
2023-02-11T05:29:50.535Z,16.47
2023-02-11T05:32:17.799Z,17.97
2023-02-11T05:34:45.196Z,19.10
2023-02-11T05:37:12.512Z,17.00
2023-02-11T05:39:39.825Z,18.27
2023-02-11T05:42:07.116Z,19.00
2023-02-11T05:44:34.395Z,17.90
2023-02-11T05:47:01.655Z,15.93
2023-02-11T05:49:28.928Z,15.67
2023-02-11T05:51:56.230Z,17.40
2023-02-11T05:54:23.631Z,15.80
2023-02-11T05:56:51.085Z,18.60
2023-02-11T05:59:18.452Z,18.30
2023-02-11T06:01:45.798Z,17.80
2023-02-11T06:04:13.079Z,17.90
2023-02-11T06:06:40.410Z,18.70
2023-02-11T06:09:07.674Z,18.67
2023-02-11T06:11:35.020Z,17.40
2023-02-11T06:14:02.585Z,17.07
2023-02-11T06:16:29.605Z,17.67
2023-02-11T06:18:57.053Z,19.20
2023-02-11T06:21:33.502Z,14.67
2023-02-11T06:24:08.291Z,17.67
2023-02-11T06:26:35.591Z,16.20
2023-02-11T06:29:02.864Z,16.43
2023-02-11T06:31:30.232Z,15.80
2023-02-11T06:33:59.209Z,15.37
2023-02-11T06:36:26.501Z,14.60
2023-02-11T06:38:53.931Z,15.80
2023-02-11T06:41:21.411Z,15.67
2023-02-11T06:43:49.240Z,15.40
2023-02-11T06:46:16.724Z,15.53
2023-02-11T06:48:45.058Z,17.37
2023-02-11T06:51:14.237Z,14.97
2023-02-11T06:53:45.007Z,17.10
2023-02-11T06:56:18.904Z,15.67
2023-02-11T06:58:47.146Z,16.30
2023-02-11T07:01:16.373Z,18.17
2023-02-11T07:03:45.268Z,17.87
2023-02-11T07:06:16.725Z,18.33
2023-02-11T07:08:45.911Z,18.97
2023-02-11T07:11:17.573Z,19.20
2023-02-11T07:13:45.024Z,15.80
2023-02-11T07:16:15.787Z,17.60
2023-02-11T07:18:43.429Z,17.63
2023-02-11T07:21:14.207Z,20.47
2023-02-11T07:23:41.780Z,23.17
2023-02-11T07:26:15.884Z,20.20
2023-02-11T07:28:43.812Z,18.47
2023-02-11T07:31:21.271Z,18.90
2023-02-11T07:33:48.718Z,18.80
2023-02-11T07:36:16.755Z,18.07
2023-02-11T07:38:44.834Z,19.10
2023-02-11T07:41:15.505Z,19.27
2023-02-11T07:43:43.420Z,20.97
2023-02-11T07:46:20.338Z,19.37
2023-02-11T07:48:47.904Z,17.83
2023-02-11T07:51:22.360Z,17.57
2023-02-11T07:53:50.328Z,18.20
2023-02-11T07:56:19.315Z,19.77
2023-02-11T07:58:46.549Z,17.37
2023-02-11T08:01:19.475Z,17.40
2023-02-11T08:03:46.822Z,18.57
2023-02-11T08:06:20.396Z,18.00
2023-02-11T08:08:47.854Z,17.77
2023-02-11T08:11:24.138Z,15.10
2023-02-11T08:13:51.814Z,15.97
2023-02-11T08:16:23.747Z,15.83
2023-02-11T08:18:52.005Z,14.40
2023-02-11T08:21:20.342Z,17.07
2023-02-11T08:23:48.084Z,18.83
2023-02-11T08:26:18.979Z,18.20
2023-02-11T08:28:48.115Z,17.20
2023-02-11T08:31:22.044Z,18.00
2023-02-11T08:33:49.945Z,20.93
2023-02-11T08:36:21.113Z,16.70
2023-02-11T08:38:48.450Z,18.23
2023-02-11T08:41:16.266Z,17.57
2023-02-11T08:43:44.980Z,20.83
2023-02-11T08:46:17.818Z,18.17
2023-02-11T08:48:46.156Z,18.50
2023-02-11T08:51:31.561Z,19.20
2023-02-11T08:53:59.301Z,18.97
2023-02-11T08:56:26.957Z,19.17
2023-02-11T08:58:54.618Z,17.17
2023-02-11T09:01:28.697Z,19.10
2023-02-11T09:03:57.238Z,19.00
2023-02-11T09:06:25.548Z,19.03
2023-02-11T09:08:56.006Z,20.80
2023-02-11T09:11:32.451Z,19.10
2023-02-11T09:14:00.008Z,19.67
2023-02-11T09:16:30.869Z,21.93
2023-02-11T09:19:00.530Z,19.97
2023-02-11T09:21:29.045Z,20.97
2023-02-11T09:23:56.770Z,23.80
2023-02-11T09:26:27.985Z,19.80
2023-02-11T09:28:55.677Z,19.90
2023-02-11T09:31:26.873Z,19.57
2023-02-11T09:33:58.464Z,18.13
2023-02-11T09:36:33.344Z,18.67
2023-02-11T09:39:02.692Z,18.83
2023-02-11T09:41:40.873Z,18.73
2023-02-11T09:44:18.639Z,18.60
2023-02-11T09:46:53.696Z,17.73
2023-02-11T09:49:31.340Z,19.90
2023-02-11T09:52:20.112Z,18.47
2023-02-11T09:54:59.016Z,28.10
2023-02-11T09:57:33.801Z,27.60
2023-02-11T10:00:02.508Z,20.80
2023-02-11T10:02:53.981Z,28.37
2023-02-11T10:05:41.858Z,27.83
2023-02-11T10:08:22.082Z,23.70
2023-02-11T10:11:31.251Z,24.27
2023-02-11T10:14:43.273Z,24.10
2023-02-11T10:17:52.385Z,23.53
2023-02-11T10:20:40.724Z,24.43
2023-02-11T10:23:37.181Z,26.00
2023-02-11T10:26:15.016Z,43.70
2023-02-11T10:28:46.620Z,28.63
2023-02-11T10:31:23.205Z,23.17
2023-02-11T10:34:00.724Z,24.00
2023-02-11T10:36:36.320Z,25.07
2023-02-11T10:39:22.834Z,22.67
2023-02-11T10:41:59.954Z,24.70
2023-02-11T10:44:35.415Z,24.83
2023-02-11T10:47:10.862Z,23.80
2023-02-11T10:49:44.246Z,25.80
2023-02-11T10:52:30.449Z,23.23
2023-02-11T10:55:01.900Z,22.20
2023-02-11T10:57:51.158Z,24.87
2023-02-11T11:00:18.062Z,44.33
2023-02-11T11:02:46.747Z,30.17
2023-02-11T11:05:23.734Z,24.60
2023-02-11T11:07:57.694Z,25.07
2023-02-11T11:10:45.160Z,25.67
2023-02-11T11:13:31.331Z,23.27
2023-02-11T11:16:13.420Z,25.83
2023-02-11T11:18:43.808Z,25.10
2023-02-11T11:21:26.981Z,23.53
2023-02-11T11:24:01.119Z,24.30
2023-02-11T11:26:44.229Z,22.90
2023-02-11T11:29:21.709Z,23.93
2023-02-11T11:32:01.327Z,23.87
2023-02-11T11:34:38.343Z,23.30
2023-02-11T11:37:51.764Z,22.70
2023-02-11T11:40:34.131Z,19.50
2023-02-11T11:43:15.042Z,21.40
2023-02-11T11:45:58.314Z,21.20
2023-02-11T11:48:42.207Z,23.73
2023-02-11T11:51:13.353Z,20.77
2023-02-11T11:53:58.254Z,24.00
2023-02-11T11:56:30.025Z,24.60
2023-02-11T11:58:59.114Z,26.10
2023-02-11T12:01:50.959Z,24.77
2023-02-11T12:04:34.024Z,23.57
2023-02-11T12:07:29.674Z,24.57
2023-02-11T12:10:14.853Z,24.30
2023-02-11T12:12:59.549Z,24.13
2023-02-11T12:16:00.886Z,24.70
2023-02-11T12:19:06.998Z,24.80
2023-02-11T12:21:50.326Z,24.60
2023-02-11T12:24:49.760Z,24.10
2023-02-11T12:28:01.891Z,23.50
2023-02-11T12:31:06.038Z,24.23
2023-02-11T12:34:10.251Z,31.67
2023-02-11T12:37:17.561Z,23.53
2023-02-11T12:40:01.595Z,23.00
2023-02-11T12:43:20.207Z,22.83
2023-02-11T12:46:10.882Z,22.30
2023-02-11T12:48:58.992Z,23.63
2023-02-11T12:51:57.680Z,21.93
2023-02-11T12:54:33.274Z,23.73
2023-02-11T12:57:27.020Z,24.90
2023-02-11T13:01:04.511Z,30.07
2023-02-11T13:03:43.555Z,22.30
2023-02-11T13:06:17.846Z,21.93
2023-02-11T13:08:48.954Z,22.97
2023-02-11T13:11:24.055Z,23.03
2023-02-11T13:14:23.944Z,23.67
2023-02-11T13:16:51.447Z,22.80
2023-02-11T13:19:46.236Z,24.40
2023-02-11T13:22:37.139Z,29.60
2023-02-11T13:25:25.566Z,29.50
2023-02-11T13:28:09.298Z,23.90
2023-02-11T13:30:40.828Z,24.77
2023-02-11T13:33:18.461Z,23.83
2023-02-11T13:36:08.877Z,23.67
2023-02-11T13:38:36.790Z,20.17
2023-02-11T13:41:23.495Z,21.87
2023-02-11T13:44:08.879Z,20.70
2023-02-11T13:47:06.628Z,23.00
2023-02-11T13:49:41.812Z,12.10
2023-02-11T13:52:34.988Z,11.90
2023-02-11T13:55:23.377Z,12.07
2023-02-11T13:58:05.562Z,12.57
2023-02-11T14:00:35.590Z,11.50
2023-02-11T14:03:29.837Z,12.80
2023-02-11T14:06:27.397Z,12.77
2023-02-11T14:09:09.816Z,13.93
2023-02-11T14:11:45.406Z,13.93
2023-02-11T14:14:24.435Z,11.50
2023-02-11T14:17:03.183Z,12.90
2023-02-11T14:19:41.638Z,12.17
2023-02-11T14:22:27.738Z,13.97
2023-02-11T14:24:59.984Z,12.67
2023-02-11T14:27:55.399Z,13.57
2023-02-11T14:30:46.923Z,13.23
2023-02-11T14:34:08.104Z,13.63
2023-02-11T14:36:52.676Z,12.90
2023-02-11T14:39:45.162Z,12.70
2023-02-11T14:42:20.851Z,13.90
2023-02-11T14:44:50.843Z,13.63
2023-02-11T14:47:23.013Z,13.27
2023-02-11T14:49:50.674Z,13.20
2023-02-11T14:52:32.261Z,12.90
2023-02-11T14:55:41.276Z,13.70
2023-02-11T14:58:24.203Z,17.00
2023-02-11T15:01:00.828Z,17.37
2023-02-11T15:03:41.299Z,18.70
2023-02-11T15:06:19.562Z,19.10
2023-02-11T15:09:00.960Z,16.30
2023-02-11T15:11:34.728Z,24.87
2023-02-11T15:14:33.653Z,24.80
2023-02-11T15:17:05.734Z,15.13
2023-02-11T15:19:38.265Z,14.70
2023-02-11T15:22:21.321Z,14.53
2023-02-11T15:25:04.916Z,14.30
2023-02-11T15:27:43.050Z,14.27
2023-02-11T15:30:21.656Z,15.40
2023-02-11T15:32:59.573Z,14.27
2023-02-11T15:35:31.168Z,13.17
2023-02-11T15:37:59.699Z,13.57
2023-02-11T15:40:34.948Z,13.90
2023-02-11T15:43:03.768Z,12.90
2023-02-11T15:45:54.430Z,13.57
2023-02-11T15:48:28.961Z,14.60
2023-02-11T15:51:06.055Z,14.70
2023-02-11T15:53:43.343Z,12.77
2023-02-11T15:56:30.598Z,12.60
2023-02-11T15:59:00.319Z,14.40
2023-02-11T16:01:36.913Z,13.53
2023-02-11T16:04:05.494Z,13.07
2023-02-11T16:06:41.107Z,12.10
2023-02-11T16:09:13.671Z,15.57
2023-02-11T16:11:58.969Z,12.93
2023-02-11T16:14:29.484Z,14.10
2023-02-11T16:17:27.852Z,12.90
2023-02-11T16:19:55.373Z,13.43
2023-02-11T16:22:35.270Z,14.70
2023-02-11T16:25:02.588Z,15.80
2023-02-11T16:27:41.305Z,15.03
2023-02-11T16:30:26.738Z,14.87
2023-02-11T16:32:54.499Z,13.40
2023-02-11T16:35:21.701Z,14.97
2023-02-11T16:37:48.653Z,12.30
2023-02-11T16:40:15.859Z,14.47
2023-02-11T16:42:42.787Z,13.60
2023-02-11T16:45:10.007Z,12.60
2023-02-11T16:47:40.960Z,12.60
2023-02-11T16:50:21.249Z,13.40
2023-02-11T16:52:48.718Z,13.23
2023-02-11T16:55:15.765Z,13.07
2023-02-11T16:57:42.660Z,14.90
2023-02-11T17:00:11.681Z,17.63
2023-02-11T17:02:39.370Z,18.60
2023-02-11T17:05:12.438Z,18.37
2023-02-11T17:07:39.329Z,21.23
2023-02-11T17:10:19.840Z,17.37
2023-02-11T17:12:48.389Z,15.73
2023-02-11T17:15:15.651Z,15.10
2023-02-11T17:17:42.748Z,17.77
2023-02-11T17:20:13.191Z,15.67
2023-02-11T17:22:41.009Z,16.53
2023-02-11T17:25:08.763Z,15.87
2023-02-11T17:27:35.654Z,16.00
2023-02-11T17:30:03.113Z,15.97
2023-02-11T17:32:29.977Z,14.10
2023-02-11T17:34:57.015Z,12.10
2023-02-11T17:37:24.039Z,11.73
2023-02-11T17:39:51.103Z,13.70
2023-02-11T17:42:21.086Z,13.47
2023-02-11T17:44:48.012Z,13.30
2023-02-11T17:47:15.111Z,13.37
2023-02-11T17:49:42.418Z,11.73
2023-02-11T17:52:09.716Z,9.43
2023-02-11T17:54:38.214Z,10.10
2023-02-11T17:57:05.228Z,15.17
2023-02-11T17:59:35.391Z,9.60
2023-02-11T18:02:03.793Z,10.50
2023-02-11T18:04:31.488Z,11.10
2023-02-11T18:06:58.491Z,10.33
2023-02-11T18:09:26.177Z,11.80
2023-02-11T18:11:53.998Z,11.17
2023-02-11T18:14:22.237Z,10.93
2023-02-11T18:16:52.753Z,28.87
2023-02-11T18:19:20.470Z,15.30
2023-02-11T18:21:50.216Z,13.47
2023-02-11T18:24:18.196Z,12.83
2023-02-11T18:26:45.086Z,12.53
2023-02-11T18:29:12.072Z,11.27
2023-02-11T18:31:39.563Z,11.97
2023-02-11T18:34:08.125Z,11.80
2023-02-11T18:36:35.544Z,37.33
2023-02-11T18:39:03.529Z,18.27
2023-02-11T18:41:30.473Z,13.90
2023-02-11T18:43:58.721Z,13.47
2023-02-11T18:46:25.773Z,10.47
2023-02-11T18:48:56.004Z,11.17
2023-02-11T18:51:23.809Z,10.40
2023-02-11T18:53:50.769Z,10.07
2023-02-11T18:56:22.176Z,12.47
2023-02-11T18:58:49.481Z,12.87
2023-02-11T19:01:20.902Z,11.00
2023-02-11T19:03:48.312Z,10.47
2023-02-11T19:06:26.453Z,11.10
2023-02-11T19:09:00.034Z,9.30
2023-02-11T19:11:47.746Z,8.47
2023-02-11T19:14:31.500Z,19.10
2023-02-11T19:17:01.511Z,11.80
2023-02-11T19:19:31.618Z,11.53
2023-02-11T19:21:59.973Z,12.00
2023-02-11T19:24:29.055Z,9.70
2023-02-11T19:27:00.097Z,10.03
2023-02-11T19:29:28.467Z,10.80
2023-02-11T19:31:57.865Z,10.70
2023-02-11T19:34:24.800Z,9.77
2023-02-11T19:36:51.712Z,10.13
2023-02-11T19:39:18.684Z,8.70
2023-02-11T19:41:45.618Z,9.10
2023-02-11T19:44:14.009Z,9.20
2023-02-11T19:46:41.099Z,9.10
2023-02-11T19:49:09.891Z,8.10
2023-02-11T19:51:39.176Z,8.23
2023-02-11T19:54:07.196Z,8.37
2023-02-11T19:56:35.014Z,9.60
2023-02-11T19:59:04.173Z,8.20
2023-02-11T20:01:31.125Z,8.80
2023-02-11T20:03:58.115Z,8.40
2023-02-11T20:06:28.117Z,9.67
2023-02-11T20:08:58.787Z,8.50
2023-02-11T20:11:31.625Z,8.67
2023-02-11T20:13:59.347Z,9.40
2023-02-11T20:16:45.046Z,9.33
2023-02-11T20:19:21.334Z,9.73
2023-02-11T20:21:52.896Z,7.83
2023-02-11T20:24:20.583Z,9.00
2023-02-11T20:26:48.816Z,9.70
2023-02-11T20:29:18.884Z,8.27
2023-02-11T20:31:46.123Z,8.90
2023-02-11T20:34:13.376Z,9.53
2023-02-11T20:36:40.898Z,33.50
2023-02-11T20:39:09.957Z,56.80
2023-02-11T20:41:39.921Z,25.27
2023-02-11T20:44:10.474Z,13.60
2023-02-11T20:46:40.841Z,9.57
2023-02-11T20:49:10.764Z,8.27
2023-02-11T20:51:37.866Z,9.20
2023-02-11T20:54:06.163Z,8.63
2023-02-11T20:56:36.754Z,8.57
2023-02-11T20:59:05.226Z,8.90
2023-02-11T21:01:36.236Z,9.40
2023-02-11T21:04:08.075Z,8.87
2023-02-11T21:06:39.656Z,8.77
2023-02-11T21:09:09.295Z,8.30
2023-02-11T21:11:36.446Z,8.30
2023-02-11T21:14:03.780Z,8.37
2023-02-11T21:16:31.497Z,9.63
2023-02-11T21:18:58.567Z,8.60
2023-02-11T21:21:25.460Z,8.63
2023-02-11T21:23:52.641Z,9.93
2023-02-11T21:26:19.715Z,9.20
2023-02-11T21:28:46.703Z,9.53
2023-02-11T21:31:29.499Z,9.10
2023-02-11T21:33:59.366Z,9.70
2023-02-11T21:36:28.298Z,8.77
2023-02-11T21:38:55.224Z,8.73
2023-02-11T21:41:22.781Z,8.10
2023-02-11T21:43:50.915Z,8.23
2023-02-11T21:46:19.816Z,9.57
2023-02-11T21:48:47.369Z,8.00
2023-02-11T21:51:20.692Z,8.23
2023-02-11T21:53:47.746Z,15.17
2023-02-11T21:56:17.524Z,30.70
2023-02-11T21:58:45.312Z,15.60
2023-02-11T22:01:16.226Z,10.77
2023-02-11T22:03:43.514Z,8.63
2023-02-11T22:06:14.804Z,7.83
2023-02-11T22:08:41.777Z,8.30
2023-02-11T22:11:12.142Z,8.07
2023-02-11T22:13:40.290Z,9.37
2023-02-11T22:16:14.543Z,8.63
2023-02-11T22:18:44.540Z,7.93
2023-02-11T22:21:18.710Z,8.87
2023-02-11T22:23:46.229Z,9.23
2023-02-11T22:26:17.508Z,9.33
2023-02-11T22:28:45.578Z,9.10
2023-02-11T22:31:19.273Z,9.60
2023-02-11T22:33:47.045Z,10.23
2023-02-11T22:36:24.398Z,9.57
2023-02-11T22:38:51.708Z,9.27
2023-02-11T22:41:19.813Z,9.07
2023-02-11T22:43:47.180Z,8.70
2023-02-11T22:46:18.734Z,9.10
2023-02-11T22:48:47.167Z,8.50
2023-02-11T22:51:21.397Z,8.30
2023-02-11T22:53:58.785Z,7.60
2023-02-11T22:56:26.718Z,7.87
2023-02-11T22:58:57.760Z,9.07
2023-02-11T23:01:25.224Z,8.10
2023-02-11T23:03:52.268Z,7.40
2023-02-11T23:06:19.563Z,8.53
2023-02-11T23:08:46.862Z,8.10
2023-02-11T23:11:18.962Z,7.70
2023-02-11T23:13:48.641Z,8.37
2023-02-11T23:16:29.010Z,7.23
2023-02-11T23:18:55.986Z,7.40
2023-02-11T23:21:27.701Z,7.07
2023-02-11T23:24:03.657Z,8.33
2023-02-11T23:26:30.801Z,7.30
2023-02-11T23:28:59.535Z,7.27
2023-02-11T23:31:34.158Z,7.07
2023-02-11T23:34:01.988Z,6.97
2023-02-11T23:36:29.351Z,8.30
2023-02-11T23:38:56.366Z,8.30
2023-02-11T23:41:23.883Z,8.10
2023-02-11T23:43:53.297Z,8.60
2023-02-11T23:46:22.127Z,8.73
2023-02-11T23:48:51.516Z,9.07
2023-02-11T23:51:19.146Z,8.50
2023-02-11T23:53:46.444Z,8.27
2023-02-11T23:56:23.720Z,9.20
2023-02-11T23:58:54.808Z,8.57
